createdAt,value
2022-10-11T00:00:04.371Z,2.75
2022-10-11T00:02:31.980Z,2.92
2022-10-11T00:04:59.646Z,2.67
2022-10-11T00:07:27.281Z,2.97
2022-10-11T00:09:55.107Z,2.83
2022-10-11T00:12:24.176Z,2.78
2022-10-11T00:14:51.802Z,2.75
2022-10-11T00:17:19.414Z,2.75
2022-10-11T00:19:47.249Z,2.22
2022-10-11T00:22:14.961Z,2.45
2022-10-11T00:24:42.712Z,2.67
2022-10-11T00:27:10.457Z,2.58
2022-10-11T00:29:40.118Z,2.78
2022-10-11T00:32:07.946Z,2.92
2022-10-11T00:34:35.683Z,3.00
2022-10-11T00:37:03.461Z,2.70
2022-10-11T00:39:31.155Z,2.40
2022-10-11T00:41:58.809Z,2.38
2022-10-11T00:44:28.325Z,2.90
2022-10-11T00:46:59.798Z,2.60
2022-10-11T00:49:33.173Z,2.15
2022-10-11T00:52:03.078Z,2.42
2022-10-11T00:54:34.339Z,2.13
2022-10-11T00:57:05.542Z,2.33
2022-10-11T00:59:39.275Z,2.47
2022-10-11T01:02:08.753Z,2.53
2022-10-11T01:04:36.596Z,2.08
2022-10-11T01:07:04.314Z,2.33
2022-10-11T01:09:32.137Z,2.10
2022-10-11T01:12:01.692Z,2.30
2022-10-11T01:15:06.217Z,2.38
2022-10-11T01:17:41.522Z,2.30
2022-10-11T01:20:30.610Z,2.70
2022-10-11T01:23:18.357Z,1.90
2022-10-11T01:25:57.064Z,2.05
2022-10-11T01:28:36.884Z,2.08
2022-10-11T01:31:13.599Z,2.22
2022-10-11T01:33:42.742Z,2.08
2022-10-11T01:36:17.625Z,2.03
2022-10-11T01:38:48.037Z,2.30
2022-10-11T01:41:19.912Z,2.00
2022-10-11T01:43:48.465Z,1.77
2022-10-11T01:46:18.118Z,2.05
2022-10-11T01:48:50.572Z,2.33
2022-10-11T01:51:20.718Z,2.20
2022-10-11T01:53:58.568Z,2.13
2022-10-11T01:56:35.878Z,2.05
2022-10-11T01:59:16.352Z,1.92
2022-10-11T02:01:55.110Z,2.28
2022-10-11T02:04:29.812Z,2.10
2022-10-11T02:06:59.881Z,2.33
2022-10-11T02:09:31.633Z,1.95
2022-10-11T02:12:03.813Z,2.40
2022-10-11T02:14:34.407Z,2.17
2022-10-11T02:17:07.587Z,1.88
2022-10-11T02:19:38.532Z,1.92
2022-10-11T02:22:10.153Z,1.90
2022-10-11T02:24:39.297Z,2.00
2022-10-11T02:27:07.496Z,2.30
2022-10-11T02:29:37.447Z,2.10
2022-10-11T02:32:07.691Z,2.35
2022-10-11T02:34:37.563Z,2.20
2022-10-11T02:37:07.640Z,2.17
2022-10-11T02:39:42.086Z,2.38
2022-10-11T02:42:14.033Z,1.97
2022-10-11T02:44:45.030Z,1.90
2022-10-11T02:47:14.219Z,2.10
2022-10-11T02:49:41.887Z,2.00
2022-10-11T02:52:09.645Z,2.08
2022-10-11T02:54:37.426Z,1.97
2022-10-11T02:57:05.167Z,2.00
2022-10-11T02:59:32.805Z,2.15
2022-10-11T03:02:00.627Z,1.90
2022-10-11T03:04:29.757Z,2.40
2022-10-11T03:06:57.514Z,1.83
2022-10-11T03:09:25.262Z,2.13
2022-10-11T03:11:53.036Z,1.58
2022-10-11T03:14:20.690Z,1.90
2022-10-11T03:16:48.731Z,1.65
2022-10-11T03:19:19.330Z,2.10
2022-10-11T03:21:48.703Z,2.00
2022-10-11T03:24:16.406Z,2.40
2022-10-11T03:26:44.083Z,1.65
2022-10-11T03:29:12.145Z,1.80
2022-10-11T03:31:39.785Z,2.20
2022-10-11T03:34:07.763Z,1.60
2022-10-11T03:36:35.426Z,1.80
2022-10-11T03:39:05.061Z,1.75
2022-10-11T03:41:32.945Z,2.15
2022-10-11T03:44:00.585Z,2.15
2022-10-11T03:46:28.251Z,1.50
2022-10-11T03:48:55.833Z,1.63
2022-10-11T03:51:23.470Z,1.80
2022-10-11T03:53:51.164Z,1.88
2022-10-11T03:56:20.137Z,1.83
2022-10-11T03:58:47.864Z,1.60
2022-10-11T04:01:15.563Z,1.70
2022-10-11T04:03:43.257Z,2.00
2022-10-11T04:06:10.919Z,2.17
2022-10-11T04:08:38.551Z,2.13
2022-10-11T04:11:06.193Z,1.92
2022-10-11T04:13:35.374Z,2.25
2022-10-11T04:16:03.402Z,2.30
2022-10-11T04:18:31.332Z,2.00
2022-10-11T04:20:58.975Z,2.17
2022-10-11T04:23:26.668Z,2.50
2022-10-11T04:25:54.297Z,2.50
2022-10-11T04:28:22.126Z,2.47
2022-10-11T04:30:51.809Z,1.90
2022-10-11T04:33:19.457Z,2.10
2022-10-11T04:35:47.332Z,2.03
2022-10-11T04:38:15.032Z,2.42
2022-10-11T04:40:42.699Z,1.88
2022-10-11T04:43:10.442Z,2.08
2022-10-11T04:45:38.119Z,1.77
2022-10-11T04:48:07.949Z,2.35
2022-10-11T04:50:35.679Z,2.45
2022-10-11T04:53:03.313Z,2.20
2022-10-11T04:55:30.964Z,2.20
2022-10-11T04:57:58.647Z,2.00
2022-10-11T05:00:27.444Z,1.80
2022-10-11T05:02:55.206Z,2.22
2022-10-11T05:05:24.429Z,2.28
2022-10-11T05:07:52.005Z,2.13
2022-10-11T05:10:19.730Z,2.15
2022-10-11T05:12:47.412Z,1.95
2022-10-11T05:15:15.076Z,2.10
2022-10-11T05:17:42.708Z,2.53
2022-10-11T05:20:11.054Z,1.88
2022-10-11T05:22:40.083Z,2.00
2022-10-11T05:25:08.298Z,2.10
2022-10-11T05:27:36.097Z,2.45
2022-10-11T05:30:03.837Z,2.55
2022-10-11T05:32:32.444Z,2.43
2022-10-11T05:35:00.129Z,2.60
2022-10-11T05:37:27.815Z,3.00
2022-10-11T05:39:56.939Z,2.90
2022-10-11T05:42:24.765Z,2.90
2022-10-11T05:44:52.429Z,2.70
2022-10-11T05:47:20.151Z,2.45
2022-10-11T05:49:47.973Z,2.90
2022-10-11T05:52:19.732Z,2.53
2022-10-11T05:54:47.407Z,2.50
2022-10-11T05:57:16.850Z,2.22
2022-10-11T05:59:44.708Z,2.20
2022-10-11T06:02:12.902Z,2.10
2022-10-11T06:04:40.850Z,2.40
2022-10-11T06:07:08.790Z,2.27
2022-10-11T06:09:36.463Z,2.35
2022-10-11T06:12:04.583Z,2.20
2022-10-11T06:14:33.653Z,2.25
2022-10-11T06:17:01.391Z,2.20
2022-10-11T06:19:29.206Z,2.20
2022-10-11T06:21:56.864Z,2.78
2022-10-11T06:24:24.574Z,3.05
2022-10-11T06:26:52.407Z,3.00
2022-10-11T06:29:20.065Z,3.30
2022-10-11T06:31:49.507Z,3.10
2022-10-11T06:34:17.327Z,3.20
2022-10-11T06:36:44.905Z,3.17
2022-10-11T06:39:12.663Z,3.20
2022-10-11T06:41:40.281Z,3.20
2022-10-11T06:44:11.932Z,3.20
2022-10-11T06:46:41.892Z,3.38
2022-10-11T06:49:10.965Z,3.05
2022-10-11T06:51:38.682Z,3.30
2022-10-11T06:54:06.396Z,3.35
2022-10-11T06:56:34.075Z,3.03
2022-10-11T06:59:01.975Z,3.05
2022-10-11T07:01:29.764Z,3.38
2022-10-11T07:03:59.874Z,3.47
2022-10-11T07:06:30.126Z,4.00
2022-10-11T07:08:58.322Z,4.10
2022-10-11T07:11:27.315Z,3.83
2022-10-11T07:13:56.354Z,5.15
2022-10-11T07:16:24.589Z,5.40
2022-10-11T07:18:59.534Z,5.10
2022-10-11T07:21:30.326Z,5.93
2022-10-11T07:23:58.021Z,7.18
2022-10-11T07:26:25.838Z,6.43
2022-10-11T07:28:53.543Z,6.70
2022-10-11T07:31:24.006Z,6.93
2022-10-11T07:33:51.772Z,6.72
2022-10-11T07:36:19.503Z,5.85
2022-10-11T07:38:50.135Z,5.57
2022-10-11T07:41:18.055Z,5.82
2022-10-11T07:43:47.783Z,5.40
2022-10-11T07:46:15.672Z,5.75
2022-10-11T07:48:43.346Z,5.10
2022-10-11T07:51:14.551Z,4.60
2022-10-11T07:53:43.201Z,4.82
2022-10-11T07:56:14.087Z,4.80
2022-10-11T07:58:42.297Z,5.90
2022-10-11T08:01:11.177Z,5.35
2022-10-11T08:03:39.559Z,5.95
2022-10-11T08:08:31.128Z,6.07
2022-10-11T08:10:59.149Z,6.25
2022-10-11T08:13:27.004Z,6.07
2022-10-11T08:15:54.852Z,5.82
2022-10-11T08:18:22.484Z,5.70
2022-10-11T08:20:50.493Z,5.47
2022-10-11T08:23:19.322Z,6.20
2022-10-11T08:25:48.992Z,5.60
2022-10-11T08:28:17.794Z,5.97
2022-10-11T08:30:49.890Z,5.70
2022-10-11T08:33:17.729Z,5.93
2022-10-11T08:35:45.857Z,6.57
2022-10-11T08:38:14.114Z,6.40
2022-10-11T08:40:48.837Z,5.93
2022-10-11T08:43:25.066Z,6.18
2022-10-11T08:45:55.058Z,6.45
2022-10-11T08:48:26.961Z,7.07
2022-10-11T08:50:55.703Z,7.13
2022-10-11T08:53:26.933Z,7.10
2022-10-11T08:55:56.618Z,7.00
2022-10-11T08:58:27.119Z,7.65
2022-10-11T09:00:55.617Z,8.15
2022-10-11T09:03:29.942Z,7.97
2022-10-11T09:06:14.913Z,8.48
2022-10-11T09:08:52.957Z,6.65
2022-10-11T09:11:27.130Z,6.38
2022-10-11T09:14:24.797Z,6.70
2022-10-11T09:16:59.726Z,6.82
2022-10-11T09:19:49.195Z,6.80
2022-10-11T09:22:21.624Z,6.75
2022-10-11T09:25:08.474Z,6.80
2022-10-11T09:28:01.283Z,6.68
2022-10-11T09:30:27.236Z,6.90
2022-10-11T09:33:03.705Z,7.00
2022-10-11T09:35:34.728Z,7.47
2022-10-11T09:38:06.345Z,6.88
2022-10-11T09:40:41.454Z,7.47
2022-10-11T09:43:12.669Z,6.55
2022-10-11T09:45:49.214Z,6.10
2022-10-11T09:48:20.431Z,6.43
2022-10-11T09:50:48.198Z,5.75
2022-10-11T09:53:16.135Z,5.38
2022-10-11T09:55:53.501Z,5.47
2022-10-11T09:58:29.878Z,4.97
2022-10-11T10:01:07.362Z,3.83
2022-10-11T10:03:37.684Z,3.90
2022-10-11T10:06:08.259Z,3.38
2022-10-11T10:08:36.422Z,2.95
2022-10-11T10:11:05.807Z,3.65
2022-10-11T10:13:43.474Z,3.40
2022-10-11T10:16:21.874Z,2.88
2022-10-11T10:18:52.101Z,2.88
2022-10-11T10:21:26.650Z,2.60
2022-10-11T10:23:55.893Z,2.33
2022-10-11T10:26:25.067Z,2.92
2022-10-11T10:29:03.840Z,2.28
2022-10-11T10:31:49.419Z,2.03
2022-10-11T10:34:27.358Z,2.03
2022-10-11T10:36:56.995Z,2.30
2022-10-11T10:39:29.811Z,2.05
2022-10-11T10:41:57.742Z,1.67
2022-10-11T10:44:26.748Z,2.13
2022-10-11T10:47:01.931Z,1.83
2022-10-11T10:49:53.126Z,2.08
2022-10-11T10:52:51.174Z,1.80
2022-10-11T10:55:24.940Z,1.52
2022-10-11T10:58:15.136Z,1.85
2022-10-11T11:00:49.792Z,1.40
2022-10-11T11:03:23.066Z,1.83
2022-10-11T11:05:59.089Z,1.67
2022-10-11T11:08:36.387Z,2.30
2022-10-11T11:11:09.059Z,1.48
2022-10-11T11:13:41.830Z,2.00
2022-10-11T11:16:15.072Z,1.40
2022-10-11T11:18:47.111Z,1.77
2022-10-11T11:21:25.679Z,1.65
2022-10-11T11:24:02.657Z,1.40
2022-10-11T11:26:37.837Z,1.42
2022-10-11T11:29:19.278Z,1.60
2022-10-11T11:32:19.489Z,1.58
2022-10-11T11:34:52.454Z,1.75
2022-10-11T11:37:26.413Z,1.67
2022-10-11T11:39:57.050Z,1.30
2022-10-11T11:42:30.851Z,1.92
2022-10-11T11:45:04.850Z,1.80
2022-10-11T11:47:34.683Z,1.75
2022-10-11T11:50:08.186Z,1.10
2022-10-11T11:52:38.485Z,1.58
2022-10-11T11:55:12.218Z,1.30
2022-10-11T11:57:55.262Z,1.60
2022-10-11T12:00:24.862Z,1.10
2022-10-11T12:02:54.523Z,0.93
2022-10-11T12:05:25.923Z,1.33
2022-10-11T12:07:57.176Z,1.10
2022-10-11T12:10:28.379Z,1.30
2022-10-11T12:13:19.397Z,1.05
2022-10-11T12:16:00.702Z,1.57
2022-10-11T12:18:30.665Z,1.40
2022-10-11T12:21:07.859Z,1.20
2022-10-11T12:23:45.277Z,1.53
2022-10-11T12:26:33.544Z,1.20
2022-10-11T12:29:27.354Z,1.13
2022-10-11T12:32:29.483Z,0.80
2022-10-11T12:35:31.270Z,0.68
2022-10-11T12:38:06.730Z,1.03
2022-10-11T12:43:24.980Z,1.30
2022-10-11T12:45:52.680Z,0.88
2022-10-11T12:48:42.488Z,1.10
2022-10-11T12:51:24.915Z,1.00
2022-10-11T12:54:28.304Z,0.95
2022-10-11T12:57:18.923Z,0.88
2022-10-11T12:59:48.133Z,0.70
2022-10-11T13:02:28.858Z,1.00
2022-10-11T13:05:07.659Z,0.82
2022-10-11T13:07:36.227Z,1.13
2022-10-11T13:10:05.959Z,1.15
2022-10-11T13:12:37.817Z,0.95
2022-10-11T13:15:09.763Z,0.95
2022-10-11T13:17:39.101Z,1.15
2022-10-11T13:20:10.714Z,1.13
2022-10-11T13:22:40.865Z,1.10
2022-10-11T13:25:10.017Z,1.13
2022-10-11T13:27:38.462Z,1.15
2022-10-11T13:30:12.808Z,1.08
2022-10-11T13:32:40.523Z,1.15
2022-10-11T13:35:19.777Z,1.63
2022-10-11T13:37:50.372Z,1.10
2022-10-11T13:40:20.702Z,1.27
2022-10-11T13:42:49.307Z,1.37
2022-10-11T13:45:20.606Z,1.27
2022-10-11T13:47:49.187Z,1.50
2022-10-11T13:50:24.022Z,1.55
2022-10-11T13:52:55.483Z,1.75
2022-10-11T13:55:25.934Z,1.60
2022-10-11T13:57:53.866Z,0.90
2022-10-11T14:00:30.079Z,1.10
2022-10-11T14:03:00.253Z,1.38
2022-10-11T14:05:31.520Z,0.85
2022-10-11T14:08:01.054Z,1.13
2022-10-11T14:10:29.465Z,1.05
2022-10-11T14:13:03.090Z,0.98
2022-10-11T14:15:34.513Z,1.25
2022-10-11T14:18:03.472Z,1.13
2022-10-11T14:20:38.927Z,0.98
2022-10-11T14:23:07.657Z,0.98
2022-10-11T14:25:35.425Z,1.25
2022-10-11T14:28:05.662Z,1.10
2022-10-11T14:30:34.742Z,0.90
2022-10-11T14:33:02.719Z,1.07
2022-10-11T14:35:31.885Z,1.38
2022-10-11T14:38:00.302Z,1.77
2022-10-11T14:40:30.511Z,1.30
2022-10-11T14:42:58.636Z,0.90
2022-10-11T14:45:26.384Z,1.15
2022-10-11T14:47:56.666Z,1.05
2022-10-11T14:50:30.301Z,1.23
2022-10-11T14:52:58.323Z,1.10
2022-10-11T14:55:26.040Z,0.93
2022-10-11T14:57:53.810Z,1.25
2022-10-11T15:00:23.693Z,1.75
2022-10-11T15:02:52.731Z,1.40
2022-10-11T15:05:22.022Z,1.65
2022-10-11T15:07:50.150Z,1.40
2022-10-11T15:10:21.711Z,1.50
2022-10-11T15:12:49.472Z,1.45
2022-10-11T15:15:20.190Z,1.30
2022-10-11T15:17:49.118Z,1.52
2022-10-11T15:20:22.939Z,2.58
2022-10-11T15:22:51.461Z,1.10
2022-10-11T15:25:19.080Z,1.48
2022-10-11T15:27:46.872Z,1.40
2022-10-11T15:30:17.286Z,1.90
2022-10-11T15:32:44.921Z,0.98
2022-10-11T15:35:12.674Z,1.15
2022-10-11T15:37:41.973Z,1.80
2022-10-11T15:40:17.557Z,1.60
2022-10-11T15:42:45.420Z,1.27
2022-10-11T15:45:13.793Z,1.40
2022-10-11T15:47:41.578Z,2.03
2022-10-11T15:50:18.858Z,1.50
2022-10-11T15:52:47.921Z,1.77
2022-10-11T15:55:15.722Z,1.50
2022-10-11T15:57:43.357Z,0.95
2022-10-11T16:00:11.855Z,1.58
2022-10-11T16:02:40.466Z,1.17
2022-10-11T16:05:08.590Z,1.52
2022-10-11T16:07:36.298Z,1.45
2022-10-11T16:10:06.061Z,1.17
2022-10-11T16:12:33.707Z,1.40
2022-10-11T16:15:01.334Z,1.60
2022-10-11T16:17:28.957Z,1.17
2022-10-11T16:19:57.500Z,1.58
2022-10-11T16:22:25.238Z,1.40
2022-10-11T16:24:52.848Z,1.52
2022-10-11T16:29:44.798Z,0.70
2022-10-11T16:32:12.498Z,1.23
2022-10-11T16:34:40.082Z,1.08
2022-10-11T16:37:07.777Z,2.10
2022-10-11T16:39:35.824Z,5.50
2022-10-11T16:42:03.618Z,12.15
2022-10-11T16:44:32.696Z,10.40
2022-10-11T16:47:01.957Z,12.27
2022-10-11T16:49:29.931Z,16.17
2022-10-11T16:54:30.226Z,30.92
2022-10-11T16:56:58.118Z,34.75
2022-10-11T16:59:26.026Z,31.02
2022-10-11T17:01:53.809Z,24.42
2022-10-11T17:04:21.440Z,29.02
2022-10-11T17:06:49.171Z,29.50
2022-10-11T17:09:17.442Z,25.55
2022-10-11T17:11:46.684Z,51.77
2022-10-11T17:14:14.753Z,73.00
2022-10-11T17:16:42.663Z,59.40
2022-10-11T17:19:11.823Z,36.03
2022-10-11T17:21:40.175Z,45.08
2022-10-11T17:24:08.875Z,32.10
2022-10-11T17:26:36.546Z,36.38
2022-10-11T17:29:05.615Z,35.72
2022-10-11T17:31:33.289Z,33.63
2022-10-11T17:34:01.503Z,28.05
2022-10-11T17:36:31.940Z,29.58
2022-10-11T17:39:00.964Z,28.90
2022-10-11T17:41:32.031Z,27.13
2022-10-11T17:44:01.092Z,27.30
2022-10-11T17:46:32.440Z,26.30
2022-10-11T17:49:01.542Z,24.00
2022-10-11T17:51:29.302Z,22.67
2022-10-11T17:53:56.936Z,22.03
2022-10-11T17:56:29.520Z,21.23
2022-10-11T17:58:59.550Z,18.85
2022-10-11T18:01:30.295Z,19.70
2022-10-11T18:03:59.546Z,17.77
2022-10-11T18:06:29.646Z,17.55
2022-10-11T18:08:57.955Z,16.23
2022-10-11T18:11:25.732Z,15.60
2022-10-11T18:13:54.308Z,16.15
2022-10-11T18:16:24.467Z,15.68
2022-10-11T18:18:53.752Z,14.75
2022-10-11T18:21:21.400Z,14.88
2022-10-11T18:23:49.065Z,14.23
2022-10-11T18:26:18.734Z,14.15
2022-10-11T18:28:46.754Z,18.75
2022-10-11T18:31:17.130Z,22.55
2022-10-11T18:33:46.050Z,22.00
2022-10-11T18:36:16.750Z,23.42
2022-10-11T18:38:46.670Z,21.88
2022-10-11T18:41:16.670Z,22.98
2022-10-11T18:43:44.719Z,20.58
2022-10-11T18:46:14.546Z,23.02
2022-10-11T18:48:42.855Z,37.53
2022-10-11T18:51:12.727Z,25.08
2022-10-11T18:53:42.231Z,26.98
2022-10-11T18:56:12.045Z,23.45
2022-10-11T18:58:40.948Z,22.50
2022-10-11T19:01:10.898Z,18.52
2022-10-11T19:03:38.780Z,18.80
2022-10-11T19:06:08.621Z,24.45
2022-10-11T19:08:36.591Z,23.23
2022-10-11T19:11:09.377Z,22.90
2022-10-11T19:13:37.411Z,24.30
2022-10-11T19:16:06.382Z,21.65
2022-10-11T19:18:34.388Z,20.85
2022-10-11T19:21:03.680Z,21.05
2022-10-11T19:23:35.489Z,20.15
2022-10-11T19:26:03.535Z,19.02
2022-10-11T19:28:32.796Z,19.13
2022-10-11T19:31:04.424Z,18.23
2022-10-11T19:33:32.660Z,18.05
2022-10-11T19:36:02.452Z,19.13
2022-10-11T19:38:30.520Z,21.15
2022-10-11T19:40:58.199Z,20.60
2022-10-11T19:43:25.937Z,20.25
2022-10-11T19:46:00.617Z,19.95
2022-10-11T19:48:28.331Z,18.67
2022-10-11T19:51:02.832Z,17.83
2022-10-11T19:53:31.930Z,17.38
2022-10-11T19:56:02.141Z,20.15
2022-10-11T19:58:29.983Z,21.00
2022-10-11T20:01:04.017Z,20.20
2022-10-11T20:03:31.895Z,20.23
2022-10-11T20:06:00.573Z,19.60
2022-10-11T20:08:31.143Z,18.60
2022-10-11T20:13:11.454Z,17.75
2022-10-11T20:15:39.298Z,17.30
2022-10-11T20:18:06.988Z,17.35
2022-10-11T20:20:34.620Z,15.40
2022-10-11T20:23:02.250Z,16.08
2022-10-11T20:25:29.909Z,18.80
2022-10-11T20:27:57.620Z,20.15
2022-10-11T20:30:26.722Z,20.55
2022-10-11T20:32:54.378Z,22.38
2022-10-11T20:35:22.086Z,20.73
2022-10-11T20:37:49.726Z,22.15
2022-10-11T20:40:17.616Z,23.83
2022-10-11T20:42:45.332Z,25.67
2022-10-11T20:45:13.010Z,26.05
2022-10-11T20:47:42.068Z,25.38
2022-10-11T20:50:10.085Z,23.60
2022-10-11T20:52:37.978Z,22.75
2022-10-11T20:55:06.686Z,22.90
2022-10-11T20:57:34.618Z,22.95
2022-10-11T21:00:02.359Z,21.70
2022-10-11T21:02:30.113Z,21.33
2022-10-11T21:04:59.406Z,21.42
2022-10-11T21:07:27.033Z,20.33
2022-10-11T21:09:54.701Z,21.58
2022-10-11T21:12:22.342Z,20.92
2022-10-11T21:14:49.927Z,21.02
2022-10-11T21:17:17.611Z,19.38
2022-10-11T21:19:45.251Z,18.95
2022-10-11T21:22:14.552Z,18.67
2022-10-11T21:24:42.182Z,17.15
2022-10-11T21:27:09.937Z,15.23
2022-10-11T21:29:37.714Z,16.88
2022-10-11T21:32:05.366Z,15.68
2022-10-11T21:34:33.127Z,14.93
2022-10-11T21:37:00.748Z,14.98
2022-10-11T21:39:29.797Z,14.33
2022-10-11T21:41:57.451Z,15.00
2022-10-11T21:44:25.174Z,14.75
2022-10-11T21:47:08.191Z,15.20
2022-10-11T21:49:35.987Z,15.90
2022-10-11T21:52:04.424Z,15.43
2022-10-11T21:54:33.540Z,15.35
2022-10-11T21:57:01.223Z,14.47
2022-10-11T21:59:28.852Z,13.68
2022-10-11T22:02:01.441Z,13.15
2022-10-11T22:04:29.607Z,12.70
2022-10-11T22:06:57.322Z,12.73
2022-10-11T22:09:25.190Z,12.10
2022-10-11T22:11:54.281Z,12.90
2022-10-11T22:14:21.893Z,12.60
2022-10-11T22:16:49.478Z,11.80
2022-10-11T22:19:17.205Z,11.73
2022-10-11T22:21:45.442Z,11.45
2022-10-11T22:24:13.602Z,10.98
2022-10-11T22:26:41.340Z,10.50
2022-10-11T22:29:12.589Z,11.20
2022-10-11T22:31:40.223Z,10.07
2022-10-11T22:34:07.874Z,9.35
2022-10-11T22:36:35.515Z,9.35
2022-10-11T22:39:07.671Z,8.85
2022-10-11T22:41:35.964Z,9.20
2022-10-11T22:44:04.108Z,9.10
2022-10-11T22:46:33.198Z,8.57
2022-10-11T22:49:00.817Z,7.72
2022-10-11T22:51:28.528Z,7.80
2022-10-11T22:53:56.230Z,7.30
2022-10-11T22:56:23.874Z,7.32
2022-10-11T22:58:51.523Z,6.82
2022-10-11T23:01:19.119Z,5.82
2022-10-11T23:03:50.594Z,5.85
2022-10-11T23:06:18.713Z,5.90
2022-10-11T23:08:46.391Z,6.47
2022-10-11T23:11:14.076Z,5.50
2022-10-11T23:13:41.797Z,5.70
2022-10-11T23:16:10.421Z,5.33
2022-10-11T23:18:38.329Z,5.90
2022-10-11T23:21:07.946Z,5.65
2022-10-11T23:23:36.038Z,5.03
2022-10-11T23:26:05.647Z,5.37
2022-10-11T23:28:33.398Z,4.47
2022-10-11T23:31:01.200Z,4.47
2022-10-11T23:33:29.388Z,4.30
2022-10-11T23:35:57.009Z,4.68
2022-10-11T23:38:26.012Z,4.40
2022-10-11T23:40:55.513Z,4.57
2022-10-11T23:43:23.330Z,4.35
2022-10-11T23:45:51.237Z,4.22
2022-10-11T23:48:18.888Z,4.05
2022-10-11T23:50:46.970Z,3.75
2022-10-11T23:53:14.687Z,3.83
2022-10-11T23:55:43.813Z,3.20
2022-10-11T23:58:11.649Z,3.80
